createdAt,value
2022-12-25T00:01:16.582Z,-19.15
2022-12-25T00:04:21.033Z,-19.29
2022-12-25T00:07:23.939Z,-19.19
2022-12-25T00:10:27.346Z,-19.03
2022-12-25T00:13:31.681Z,-19.02
2022-12-25T00:16:35.706Z,-19.21
2022-12-25T00:19:39.415Z,-19.30
2022-12-25T00:22:43.377Z,-19.06
2022-12-25T00:25:47.034Z,-19.11
2022-12-25T00:28:56.733Z,-18.96
2022-12-25T00:31:59.681Z,-19.02
2022-12-25T00:35:22.471Z,-19.12
2022-12-25T00:38:25.893Z,-19.10
2022-12-25T00:41:47.361Z,-19.07
2022-12-25T00:44:51.834Z,-18.89
2022-12-25T00:47:55.895Z,-18.63
2022-12-25T00:51:03.896Z,-18.62
2022-12-25T00:54:07.687Z,-18.64
2022-12-25T00:57:30.111Z,-18.49
2022-12-25T01:00:33.345Z,-18.36
2022-12-25T01:03:56.188Z,-18.34
2022-12-25T01:07:18.110Z,-18.19
2022-12-25T01:10:40.033Z,-18.06
2022-12-25T01:13:43.492Z,-18.01
2022-12-25T01:16:47.151Z,-18.08
2022-12-25T01:20:10.547Z,-17.99
2022-12-25T01:23:13.551Z,-17.78
2022-12-25T01:26:18.336Z,-17.53
2022-12-25T01:29:22.102Z,-17.48
2022-12-25T01:32:26.380Z,-17.49
2022-12-25T01:35:29.435Z,-17.44
2022-12-25T01:38:33.792Z,-17.32
2022-12-25T01:41:37.604Z,-17.24
2022-12-25T01:44:59.872Z,-17.11
2022-12-25T01:48:25.577Z,-17.05
2022-12-25T01:52:01.659Z,-16.97
2022-12-25T01:55:23.721Z,-16.92
2022-12-25T01:58:46.141Z,-16.70
2022-12-25T02:01:49.580Z,-16.53
2022-12-25T02:05:19.571Z,-16.18
2022-12-25T02:08:23.961Z,-16.05
2022-12-25T02:11:59.337Z,-15.84
2022-12-25T02:15:08.749Z,-15.74
2022-12-25T02:18:35.674Z,-15.66
2022-12-25T02:22:09.747Z,-15.55
2022-12-25T02:25:34.376Z,-15.54
2022-12-25T02:29:03.177Z,-15.61
2022-12-25T02:32:31.451Z,-15.80
2022-12-25T02:35:34.431Z,-15.89
2022-12-25T02:39:19.784Z,-15.98
2022-12-25T02:43:06.939Z,-16.12
2022-12-25T02:46:33.340Z,-15.91
2022-12-25T02:53:36.518Z,-15.29
2022-12-25T02:57:01.245Z,-15.34
2022-12-25T03:00:25.339Z,-15.09
2022-12-25T03:03:51.160Z,-14.81
2022-12-25T03:07:10.984Z,-14.99
2022-12-25T03:10:34.486Z,-15.20
2022-12-25T03:13:42.620Z,-15.35
2022-12-25T03:16:51.412Z,-15.37
2022-12-25T03:20:14.220Z,-15.34
2022-12-25T03:23:40.729Z,-15.35
2022-12-25T03:30:35.054Z,-15.28
2022-12-25T03:34:34.836Z,-15.06
2022-12-25T03:38:40.864Z,-14.85
2022-12-25T03:42:09.925Z,-14.85
2022-12-25T03:45:38.491Z,-14.91
2022-12-25T03:49:05.066Z,-14.79
2022-12-25T03:52:33.340Z,-14.67
2022-12-25T03:55:56.300Z,-14.40
2022-12-25T03:59:23.544Z,-14.28
2022-12-25T04:02:46.852Z,-14.21
2022-12-25T04:06:08.246Z,-14.24
2022-12-25T04:13:08.499Z,-14.12
2022-12-25T04:16:30.929Z,-13.93
2022-12-25T04:19:52.507Z,-13.78
2022-12-25T04:23:15.319Z,-13.63
2022-12-25T04:26:37.670Z,-13.67
2022-12-25T04:29:59.496Z,-13.73
2022-12-25T04:33:21.300Z,-13.73
2022-12-25T04:36:43.528Z,-13.62
2022-12-25T04:39:47.271Z,-13.53
2022-12-25T04:42:52.767Z,-13.36
2022-12-25T04:46:00.988Z,-13.16
2022-12-25T04:49:04.997Z,-13.09
2022-12-25T04:52:08.780Z,-12.89
2022-12-25T04:55:12.596Z,-12.76
2022-12-25T04:58:15.663Z,-12.60
2022-12-25T05:01:18.673Z,-12.54
2022-12-25T05:04:22.092Z,-12.50
2022-12-25T05:07:25.069Z,-12.39
2022-12-25T05:10:28.994Z,-12.42
2022-12-25T05:13:32.909Z,-12.43
2022-12-25T05:16:36.776Z,-12.46
2022-12-25T05:19:40.389Z,-12.36
2022-12-25T05:23:02.397Z,-12.28
2022-12-25T05:26:07.698Z,-12.25
2022-12-25T05:29:10.853Z,-12.10
2022-12-25T05:32:13.795Z,-12.19
2022-12-25T05:35:16.788Z,-12.25
2022-12-25T05:38:19.684Z,-12.23
2022-12-25T05:41:22.962Z,-12.23
2022-12-25T05:44:25.909Z,-12.29
2022-12-25T05:47:29.244Z,-12.35
2022-12-25T05:50:50.445Z,-12.32
2022-12-25T05:53:54.440Z,-12.24
2022-12-25T05:56:58.098Z,-12.14
2022-12-25T06:00:01.323Z,-12.07
2022-12-25T06:03:05.240Z,-11.85
2022-12-25T06:06:09.218Z,-11.64
2022-12-25T06:09:13.893Z,-11.57
2022-12-25T06:12:17.027Z,-11.62
2022-12-25T06:15:20.791Z,-11.67
2022-12-25T06:18:24.079Z,-11.57
2022-12-25T06:21:27.104Z,-11.30
2022-12-25T06:24:30.426Z,-11.43
2022-12-25T06:30:53.964Z,-11.54
2022-12-25T06:33:57.037Z,-11.61
2022-12-25T06:36:59.995Z,-11.46
2022-12-25T06:40:03.829Z,-11.56
2022-12-25T06:43:07.635Z,-11.63
2022-12-25T06:46:31.352Z,-11.61
2022-12-25T06:49:34.429Z,-11.35
2022-12-25T06:52:37.577Z,-11.33
2022-12-25T06:55:40.914Z,-11.66
2022-12-25T06:58:51.655Z,-11.89
2022-12-25T07:05:18.363Z,-12.17
2022-12-25T07:08:21.402Z,-12.18
2022-12-25T07:11:24.810Z,-12.12
2022-12-25T07:14:27.837Z,-12.17
2022-12-25T07:17:30.700Z,-12.08
2022-12-25T07:20:34.751Z,-12.07
2022-12-25T07:23:38.010Z,-12.20
2022-12-25T07:30:01.695Z,-12.25
2022-12-25T07:33:05.047Z,-12.20
2022-12-25T07:36:12.484Z,-12.17
2022-12-25T07:39:17.424Z,-12.22
2022-12-25T07:42:25.141Z,-12.26
2022-12-25T07:45:30.494Z,-12.28
2022-12-25T07:48:34.641Z,-12.30
2022-12-25T07:51:38.725Z,-12.33
2022-12-25T07:54:41.637Z,-12.37
2022-12-25T07:57:45.580Z,-12.41
2022-12-25T08:01:07.403Z,-12.41
2022-12-25T08:04:12.690Z,-12.36
2022-12-25T08:07:16.465Z,-12.54
2022-12-25T08:10:19.492Z,-12.60
2022-12-25T08:13:23.706Z,-12.65
2022-12-25T08:16:27.128Z,-12.61
2022-12-25T08:19:30.614Z,-12.64
2022-12-25T08:22:34.649Z,-12.60
2022-12-25T08:25:38.301Z,-12.64
2022-12-25T08:28:42.406Z,-12.68
2022-12-25T08:31:46.655Z,-12.73
2022-12-25T08:34:50.815Z,-12.78
2022-12-25T08:37:54.518Z,-12.80
2022-12-25T08:40:58.427Z,-12.74
2022-12-25T08:44:02.355Z,-12.75
2022-12-25T08:47:06.434Z,-12.88
2022-12-25T08:50:10.463Z,-12.91
2022-12-25T08:53:15.699Z,-13.00
2022-12-25T08:56:19.654Z,-13.06
2022-12-25T08:59:22.549Z,-13.13
2022-12-25T09:02:26.473Z,-13.15
2022-12-25T09:05:30.875Z,-13.13
2022-12-25T09:08:36.268Z,-13.16
2022-12-25T09:11:40.097Z,-13.28
2022-12-25T09:14:44.255Z,-13.37
2022-12-25T09:18:05.707Z,-13.36
2022-12-25T09:21:14.472Z,-13.38
2022-12-25T09:24:18.433Z,-13.39
2022-12-25T09:27:22.380Z,-13.53
2022-12-25T09:30:27.885Z,-13.61
2022-12-25T09:33:32.734Z,-13.62
2022-12-25T09:36:35.771Z,-13.76
2022-12-25T09:39:45.874Z,-13.79
2022-12-25T09:48:52.571Z,-13.61
2022-12-25T09:52:03.732Z,-13.68
2022-12-25T09:55:19.624Z,-13.73
2022-12-25T09:58:23.071Z,-13.72
2022-12-25T10:01:45.362Z,-13.70
2022-12-25T10:05:30.728Z,-13.84
2022-12-25T10:09:11.063Z,-13.89
2022-12-25T10:12:57.837Z,-13.88
2022-12-25T10:16:18.460Z,-13.99
2022-12-25T10:19:51.156Z,-13.96
2022-12-25T10:26:22.817Z,-13.94
2022-12-25T10:29:32.868Z,-14.07
2022-12-25T10:32:37.023Z,-14.09
2022-12-25T10:35:40.675Z,-14.06
2022-12-25T10:38:45.366Z,-14.02
2022-12-25T10:41:57.760Z,-14.04
2022-12-25T10:45:07.113Z,-14.08
2022-12-25T10:51:40.633Z,-14.23
2022-12-25T10:54:44.232Z,-14.31
2022-12-25T10:57:48.491Z,-14.32
2022-12-25T11:00:59.044Z,-14.29
2022-12-25T11:04:02.233Z,-14.29
2022-12-25T11:07:28.212Z,-14.26
2022-12-25T11:10:32.663Z,-14.33
2022-12-25T11:13:48.920Z,-14.39
2022-12-25T11:16:52.514Z,-14.46
2022-12-25T11:19:58.710Z,-14.44
2022-12-25T11:23:02.415Z,-14.44
2022-12-25T11:26:09.206Z,-14.49
2022-12-25T11:29:25.226Z,-14.51
2022-12-25T11:32:42.249Z,-14.62
2022-12-25T11:35:51.187Z,-14.59
2022-12-25T11:38:54.450Z,-14.60
2022-12-25T11:42:00.429Z,-14.60
2022-12-25T11:48:42.047Z,-14.48
2022-12-25T11:51:48.419Z,-14.52
2022-12-25T11:54:58.137Z,-14.52
2022-12-25T11:58:09.598Z,-14.60
2022-12-25T12:01:32.192Z,-14.65
2022-12-25T12:05:01.210Z,-14.71
2022-12-25T12:08:06.815Z,-14.74
2022-12-25T12:11:34.345Z,-14.85
2022-12-25T12:14:46.753Z,-14.87
2022-12-25T12:17:50.080Z,-14.95
2022-12-25T12:21:17.237Z,-14.93
2022-12-25T12:24:23.650Z,-14.84
2022-12-25T12:27:28.593Z,-14.78
2022-12-25T12:30:36.373Z,-14.78
2022-12-25T12:34:13.669Z,-14.74
2022-12-25T12:37:25.993Z,-14.86
2022-12-25T12:40:55.606Z,-14.93
2022-12-25T12:44:01.369Z,-15.05
2022-12-25T12:50:37.986Z,-15.07
2022-12-25T12:53:43.398Z,-15.08
2022-12-25T12:57:03.895Z,-15.12
2022-12-25T13:00:19.814Z,-15.19
2022-12-25T13:03:41.325Z,-15.22
2022-12-25T13:07:13.453Z,-15.20
2022-12-25T13:10:23.626Z,-15.27
2022-12-25T13:13:35.160Z,-15.40
2022-12-25T13:16:44.891Z,-15.45
2022-12-25T13:19:58.892Z,-15.50
2022-12-25T13:23:20.057Z,-15.47
2022-12-25T13:26:24.875Z,-15.56
2022-12-25T13:29:35.779Z,-15.66
2022-12-25T13:32:39.463Z,-15.61
2022-12-25T13:39:17.320Z,-15.66
2022-12-25T13:42:33.222Z,-15.59
2022-12-25T13:45:37.268Z,-15.65
2022-12-25T13:48:59.751Z,-15.76
2022-12-25T13:52:13.799Z,-15.73
2022-12-25T13:55:20.518Z,-15.78
2022-12-25T13:58:35.789Z,-15.79
2022-12-25T14:01:44.275Z,-15.87
2022-12-25T14:04:48.719Z,-15.93
2022-12-25T14:07:56.604Z,-16.04
2022-12-25T14:11:06.380Z,-15.98
2022-12-25T14:14:36.795Z,-15.94
2022-12-25T14:17:39.856Z,-16.08
2022-12-25T14:20:58.624Z,-16.15
2022-12-25T14:24:01.917Z,-16.16
2022-12-25T14:27:08.637Z,-16.10
2022-12-25T14:30:14.383Z,-16.18
2022-12-25T14:33:25.534Z,-16.25
2022-12-25T14:36:31.388Z,-16.32
2022-12-25T14:39:39.718Z,-16.27
2022-12-25T14:42:42.946Z,-16.34
2022-12-25T14:45:58.681Z,-16.34
2022-12-25T14:49:08.307Z,-16.34
2022-12-25T14:52:45.066Z,-16.44
2022-12-25T14:55:51.993Z,-16.50
2022-12-25T14:58:58.468Z,-16.55
2022-12-25T15:02:01.945Z,-16.63
2022-12-25T15:08:27.065Z,-16.74
2022-12-25T15:11:31.442Z,-16.75
2022-12-25T15:14:36.896Z,-16.75
2022-12-25T15:17:40.326Z,-16.84
2022-12-25T15:20:43.345Z,-16.84
2022-12-25T15:23:46.902Z,-16.92
2022-12-25T15:26:50.642Z,-17.01
2022-12-25T15:30:10.922Z,-17.08
2022-12-25T15:36:36.831Z,-16.99
2022-12-25T15:39:40.466Z,-17.11
2022-12-25T15:42:45.253Z,-17.30
2022-12-25T15:49:13.531Z,-17.13
2022-12-25T15:52:18.420Z,-17.24
2022-12-25T15:55:22.145Z,-17.22
2022-12-25T15:58:25.029Z,-17.20
2022-12-25T16:01:28.722Z,-17.27
2022-12-25T16:04:32.855Z,-17.27
2022-12-25T16:07:36.760Z,-17.42
2022-12-25T16:10:40.533Z,-17.53
2022-12-25T16:13:44.311Z,-17.52
2022-12-25T16:16:48.391Z,-17.59
2022-12-25T16:19:52.123Z,-17.56
2022-12-25T16:22:56.171Z,-17.47
2022-12-25T16:26:00.003Z,-17.45
2022-12-25T16:29:07.406Z,-17.60
2022-12-25T16:32:15.620Z,-17.71
2022-12-25T16:35:19.787Z,-17.67
2022-12-25T16:38:22.665Z,-17.66
2022-12-25T16:41:44.069Z,-17.70
2022-12-25T16:44:47.782Z,-17.72
2022-12-25T16:47:51.920Z,-17.77
2022-12-25T16:50:54.850Z,-17.81
2022-12-25T16:57:18.964Z,-17.66
2022-12-25T17:00:23.311Z,-17.74
2022-12-25T17:03:26.233Z,-17.87
2022-12-25T17:06:30.432Z,-18.03
2022-12-25T17:09:51.802Z,-17.96
2022-12-25T17:12:55.838Z,-18.24
2022-12-25T17:19:21.453Z,-18.28
2022-12-25T17:22:24.693Z,-18.35
2022-12-25T17:25:28.072Z,-18.25
2022-12-25T17:28:31.974Z,-18.46
2022-12-25T17:34:56.363Z,-18.45
2022-12-25T17:37:59.586Z,-18.59
2022-12-25T17:41:06.110Z,-18.57
2022-12-25T17:44:10.236Z,-18.46
2022-12-25T17:47:13.498Z,-18.41
2022-12-25T17:53:43.219Z,-18.66
2022-12-25T17:56:46.473Z,-18.63
2022-12-25T17:59:49.870Z,-18.65
2022-12-25T18:03:12.338Z,-18.62
2022-12-25T18:06:38.218Z,-18.68
2022-12-25T18:09:41.178Z,-18.54
2022-12-25T18:12:46.442Z,-18.50
2022-12-25T18:19:11.550Z,-18.69
2022-12-25T18:22:14.464Z,-18.69
2022-12-25T18:25:17.708Z,-18.88
2022-12-25T18:28:21.041Z,-18.99
2022-12-25T18:31:28.341Z,-18.97
2022-12-25T18:34:32.133Z,-19.12
2022-12-25T18:37:40.211Z,-19.10
2022-12-25T18:44:05.597Z,-19.16
2022-12-25T18:47:08.700Z,-19.24
2022-12-25T18:50:12.848Z,-19.25
2022-12-25T18:53:15.895Z,-19.20
2022-12-25T18:56:19.316Z,-19.17
2022-12-25T18:59:22.381Z,-19.30
2022-12-25T19:02:26.100Z,-19.18
2022-12-25T19:05:30.175Z,-19.06
2022-12-25T19:08:34.217Z,-19.18
2022-12-25T19:11:45.902Z,-19.16
2022-12-25T19:14:50.426Z,-19.35
2022-12-25T19:17:53.305Z,-19.37
2022-12-25T19:20:56.225Z,-19.49
2022-12-25T19:23:59.913Z,-19.56
2022-12-25T19:27:04.008Z,-19.63
2022-12-25T19:30:09.066Z,-19.51
2022-12-25T19:33:17.784Z,-19.58
2022-12-25T19:36:21.088Z,-19.56
2022-12-25T19:39:24.185Z,-19.47
2022-12-25T19:42:27.357Z,-19.47
2022-12-25T19:45:30.964Z,-19.47
2022-12-25T19:48:35.242Z,-19.59
2022-12-25T19:51:40.826Z,-19.53
2022-12-25T19:54:43.937Z,-19.65
2022-12-25T19:57:47.820Z,-19.79
2022-12-25T20:00:59.368Z,-19.77
2022-12-25T20:04:03.257Z,-19.91
2022-12-25T20:07:07.591Z,-19.76
2022-12-25T20:10:11.281Z,-19.64
2022-12-25T20:13:18.247Z,-19.65
2022-12-25T20:16:22.293Z,-19.61
2022-12-25T20:19:26.431Z,-19.56
2022-12-25T20:22:30.282Z,-19.53
2022-12-25T20:25:34.408Z,-19.65
2022-12-25T20:28:38.642Z,-19.67
2022-12-25T20:31:42.308Z,-19.76
2022-12-25T20:34:45.428Z,-19.74
2022-12-25T20:37:48.714Z,-19.70
2022-12-25T20:41:25.643Z,-19.78
2022-12-25T20:44:24.271Z,-19.76
2022-12-25T20:47:27.195Z,-19.78
2022-12-25T20:50:31.253Z,-19.87
2022-12-25T20:53:34.749Z,-19.95
2022-12-25T20:56:38.548Z,-19.99
2022-12-25T20:59:44.014Z,-19.85
2022-12-25T21:02:48.352Z,-19.85
2022-12-25T21:05:54.513Z,-19.94
2022-12-25T21:08:58.072Z,-20.09
2022-12-25T21:15:21.655Z,-19.89
2022-12-25T21:18:26.981Z,-19.83
2022-12-25T21:21:29.988Z,-19.79
2022-12-25T21:24:32.859Z,-19.87
2022-12-25T21:27:35.719Z,-19.83
2022-12-25T21:34:00.094Z,-19.78
2022-12-25T21:37:03.785Z,-19.89
2022-12-25T21:40:11.379Z,-19.89
2022-12-25T21:46:39.576Z,-19.90
2022-12-25T21:50:01.718Z,-19.98
2022-12-25T21:53:06.797Z,-20.01
2022-12-25T21:59:29.512Z,-19.99
2022-12-25T22:02:33.132Z,-20.05
2022-12-25T22:05:56.009Z,-20.09
2022-12-25T22:08:59.128Z,-20.06
2022-12-25T22:12:21.931Z,-19.95
2022-12-25T22:15:24.939Z,-20.03
2022-12-25T22:18:46.772Z,-20.02
2022-12-25T22:21:49.796Z,-19.96
2022-12-25T22:24:57.040Z,-19.97
2022-12-25T22:28:00.636Z,-19.94
2022-12-25T22:31:07.951Z,-19.94
2022-12-25T22:34:11.993Z,-19.90
2022-12-25T22:37:18.028Z,-19.88
2022-12-25T22:40:21.835Z,-19.88
2022-12-25T22:43:43.341Z,-19.83
2022-12-25T22:46:50.962Z,-19.85
2022-12-25T22:49:54.237Z,-19.83
2022-12-25T22:52:59.088Z,-19.76
2022-12-25T22:56:02.819Z,-19.91
2022-12-25T22:59:06.814Z,-19.93
2022-12-25T23:02:10.463Z,-20.08
2022-12-25T23:05:14.125Z,-20.21
2022-12-25T23:08:17.563Z,-20.31
2022-12-25T23:18:19.423Z,-20.19
2022-12-25T23:21:45.851Z,-20.22
2022-12-25T23:25:07.327Z,-20.15
2022-12-25T23:28:10.309Z,-20.14
2022-12-25T23:31:14.853Z,-20.26
2022-12-25T23:34:18.101Z,-20.31
2022-12-25T23:37:21.540Z,-20.48
2022-12-25T23:40:24.491Z,-20.44
2022-12-25T23:43:28.218Z,-20.47
2022-12-25T23:46:31.902Z,-20.49
2022-12-25T23:49:35.467Z,-20.29
2022-12-25T23:52:40.834Z,-20.25
2022-12-25T23:55:46.567Z,-20.35
2022-12-25T23:58:53.320Z,-20.44
